createdAt,value
2022-11-14T00:00:23.007Z,101826.16
2022-11-14T00:02:24.683Z,101828.13
2022-11-14T00:04:29.485Z,101823.75
2022-11-14T00:06:32.133Z,101819.41
2022-11-14T00:08:34.285Z,101820.19
2022-11-14T00:10:37.257Z,101817.59
2022-11-14T00:12:38.788Z,101815.84
2022-11-14T00:14:40.185Z,101819.47
2022-11-14T00:16:41.735Z,101818.63
2022-11-14T00:18:43.152Z,101817.78
2022-11-14T00:20:47.859Z,101815.13
2022-11-14T00:22:49.406Z,101819.47
2022-11-14T00:24:50.751Z,101810.66
2022-11-14T00:26:53.688Z,101810.69
2022-11-14T00:28:55.535Z,101785.19
2022-11-14T00:30:57.087Z,101807.88
2022-11-14T00:32:58.476Z,101803.47
2022-11-14T00:35:00.694Z,101794.66
2022-11-14T00:37:02.501Z,101792.09
2022-11-14T00:39:04.294Z,101792.84
2022-11-14T00:41:06.211Z,101800.81
2022-11-14T00:43:09.086Z,101788.41
2022-11-14T00:45:10.936Z,101788.53
2022-11-14T00:47:12.498Z,101778.84
2022-11-14T00:49:14.073Z,101789.44
2022-11-14T00:51:15.729Z,101788.56
2022-11-14T00:53:17.349Z,101784.06
2022-11-14T00:55:18.895Z,101779.66
2022-11-14T00:57:20.412Z,101775.22
2022-11-14T00:59:23.476Z,101755.19
2022-11-14T01:01:27.318Z,101770.00
2022-11-14T01:03:29.019Z,101761.09
2022-11-14T01:05:30.528Z,101768.31
2022-11-14T01:07:31.871Z,101759.59
2022-11-14T01:09:33.614Z,101771.03
2022-11-14T01:11:35.221Z,101758.69
2022-11-14T01:13:36.623Z,101763.97
2022-11-14T01:15:44.811Z,101756.09
2022-11-14T01:17:46.362Z,101754.34
2022-11-14T01:19:47.749Z,101755.22
2022-11-14T01:21:49.451Z,101747.44
2022-11-14T01:23:51.017Z,101733.50
2022-11-14T01:25:52.350Z,101744.97
2022-11-14T01:27:53.934Z,101738.75
2022-11-14T01:29:55.313Z,101742.44
2022-11-14T01:31:58.224Z,101737.31
2022-11-14T01:33:59.869Z,101736.34
2022-11-14T01:36:01.437Z,101738.09
2022-11-14T01:38:03.210Z,101734.81
2022-11-14T01:40:05.706Z,101734.78
2022-11-14T01:42:07.353Z,101734.00
2022-11-14T01:44:13.176Z,101733.97
2022-11-14T01:46:19.361Z,101732.03
2022-11-14T01:48:26.526Z,101726.88
2022-11-14T01:50:28.374Z,101730.34
2022-11-14T01:52:34.605Z,101720.75
2022-11-14T01:54:39.575Z,101723.34
2022-11-14T01:56:46.717Z,101717.91
2022-11-14T01:58:52.354Z,101714.47
2022-11-14T02:00:54.653Z,101718.69
2022-11-14T02:02:57.330Z,101704.50
2022-11-14T02:05:05.657Z,101707.03
2022-11-14T02:07:07.945Z,101707.84
2022-11-14T02:09:09.537Z,101691.25
2022-11-14T02:11:11.485Z,101698.22
2022-11-14T02:13:13.263Z,101691.19
2022-11-14T02:15:15.146Z,101694.72
2022-11-14T02:17:33.458Z,101697.31
2022-11-14T02:19:43.008Z,101691.19
2022-11-14T02:21:46.067Z,101689.31
2022-11-14T02:23:47.615Z,101697.09
2022-11-14T02:25:49.045Z,101685.44
2022-11-14T02:27:51.284Z,101678.50
2022-11-14T02:29:52.883Z,101690.59
2022-11-14T02:31:54.335Z,101681.75
2022-11-14T02:33:55.901Z,101679.75
2022-11-14T02:35:57.291Z,101677.97
2022-11-14T02:38:00.213Z,101673.53
2022-11-14T02:40:01.785Z,101676.16
2022-11-14T02:42:03.180Z,101671.91
2022-11-14T02:44:04.951Z,101661.06
2022-11-14T02:46:06.524Z,101660.34
2022-11-14T02:48:07.937Z,101658.72
2022-11-14T02:50:09.837Z,101659.47
2022-11-14T02:52:11.475Z,101663.03
2022-11-14T02:54:14.310Z,101662.09
2022-11-14T02:56:15.859Z,101651.63
2022-11-14T02:58:17.238Z,101652.34
2022-11-14T03:00:19.459Z,101655.84
2022-11-14T03:02:20.983Z,101638.22
2022-11-14T03:04:22.580Z,101638.84
2022-11-14T03:06:23.964Z,101646.28
2022-11-14T03:08:25.527Z,101641.00
2022-11-14T03:10:28.300Z,101642.69
2022-11-14T03:12:29.951Z,101639.09
2022-11-14T03:14:31.720Z,101633.56
2022-11-14T03:16:33.283Z,101633.56
2022-11-14T03:18:34.716Z,101637.03
2022-11-14T03:20:36.321Z,101641.38
2022-11-14T03:22:37.993Z,101643.75
2022-11-14T03:24:39.557Z,101635.81
2022-11-14T03:26:42.288Z,101635.69
2022-11-14T03:28:43.892Z,101631.44
2022-11-14T03:30:46.191Z,101631.50
2022-11-14T03:32:47.815Z,101628.66
2022-11-14T03:34:49.379Z,101627.91
2022-11-14T03:36:50.816Z,101627.88
2022-11-14T03:38:52.356Z,101620.69
2022-11-14T03:40:53.742Z,101616.44
2022-11-14T03:42:58.035Z,101616.72
2022-11-14T03:44:59.727Z,101606.91
2022-11-14T03:47:01.361Z,101609.19
2022-11-14T03:49:03.323Z,101602.16
2022-11-14T03:51:05.137Z,101598.63
2022-11-14T03:53:06.965Z,101597.66
2022-11-14T03:55:08.728Z,101585.34
2022-11-14T03:57:10.294Z,101590.44
2022-11-14T03:59:13.046Z,101597.59
2022-11-14T04:01:14.761Z,101588.03
2022-11-14T04:03:16.375Z,101587.94
2022-11-14T04:05:17.732Z,101594.81
2022-11-14T04:07:19.452Z,101592.13
2022-11-14T04:09:21.036Z,101585.19
2022-11-14T04:11:22.580Z,101590.59
2022-11-14T04:13:24.263Z,101584.25
2022-11-14T04:15:27.231Z,101585.16
2022-11-14T04:17:28.787Z,101586.25
2022-11-14T04:19:30.187Z,101582.66
2022-11-14T04:21:31.762Z,101582.81
2022-11-14T04:23:33.142Z,101577.66
2022-11-14T04:25:34.769Z,101572.44
2022-11-14T04:27:36.234Z,101579.47
2022-11-14T04:29:37.788Z,101572.44
2022-11-14T04:31:40.538Z,101574.28
2022-11-14T04:33:42.098Z,101571.06
2022-11-14T04:35:43.549Z,101579.97
2022-11-14T04:37:46.154Z,101572.22
2022-11-14T04:39:47.702Z,101578.31
2022-11-14T04:41:49.143Z,101584.28
2022-11-14T04:43:51.161Z,101586.72
2022-11-14T04:45:52.770Z,101582.22
2022-11-14T04:47:55.514Z,101576.19
2022-11-14T04:49:57.052Z,101569.72
2022-11-14T04:51:58.382Z,101569.72
2022-11-14T04:53:59.903Z,101567.72
2022-11-14T04:56:01.360Z,101566.91
2022-11-14T04:58:03.152Z,101543.19
2022-11-14T05:00:06.067Z,101570.25
2022-11-14T05:02:07.699Z,101554.28
2022-11-14T05:04:10.429Z,101558.63
2022-11-14T05:06:12.015Z,101561.31
2022-11-14T05:08:13.402Z,101553.44
2022-11-14T05:10:15.072Z,101556.41
2022-11-14T05:12:16.610Z,101557.09
2022-11-14T05:14:18.208Z,101554.44
2022-11-14T05:16:19.747Z,101553.72
2022-11-14T05:18:21.088Z,101558.81
2022-11-14T05:20:24.073Z,101557.41
2022-11-14T05:22:25.602Z,101545.91
2022-11-14T05:24:29.743Z,101556.56
2022-11-14T05:26:31.331Z,101551.41
2022-11-14T05:28:33.181Z,101557.63
2022-11-14T05:30:34.868Z,101544.34
2022-11-14T05:32:36.430Z,101555.66
2022-11-14T05:34:38.066Z,101545.91
2022-11-14T05:36:41.064Z,101551.31
2022-11-14T05:38:43.363Z,101535.44
2022-11-14T05:40:44.896Z,101538.88
2022-11-14T05:42:46.469Z,101534.56
2022-11-14T05:44:48.047Z,101536.66
2022-11-14T05:46:49.810Z,101535.75
2022-11-14T05:48:51.365Z,101536.75
2022-11-14T05:50:54.030Z,101532.41
2022-11-14T05:52:57.632Z,101523.59
2022-11-14T05:54:59.196Z,101530.75
2022-11-14T05:57:00.587Z,101527.19
2022-11-14T05:59:02.220Z,101529.25
2022-11-14T06:01:03.791Z,101534.75
2022-11-14T06:03:05.529Z,101522.50
2022-11-14T06:05:07.546Z,101522.50
2022-11-14T06:07:09.156Z,101530.41
2022-11-14T06:09:12.300Z,101528.66
2022-11-14T06:11:15.573Z,101524.25
2022-11-14T06:13:17.107Z,101517.22
2022-11-14T06:15:18.524Z,101516.38
2022-11-14T06:17:20.057Z,101512.28
2022-11-14T06:19:21.429Z,101512.22
2022-11-14T06:21:25.073Z,101516.53
2022-11-14T06:23:26.620Z,101512.13
2022-11-14T06:25:29.560Z,101514.78
2022-11-14T06:27:31.583Z,101515.69
2022-11-14T06:29:35.592Z,101520.91
2022-11-14T06:31:37.414Z,101517.34
2022-11-14T06:33:38.805Z,101520.84
2022-11-14T06:35:40.326Z,101527.88
2022-11-14T06:37:41.867Z,101526.16
2022-11-14T06:39:43.532Z,101526.13
2022-11-14T06:41:46.392Z,101525.25
2022-11-14T06:43:49.933Z,101522.56
2022-11-14T06:45:53.712Z,101519.19
2022-11-14T06:47:58.548Z,101519.41
2022-11-14T06:50:00.147Z,101521.13
2022-11-14T06:52:01.562Z,101525.72
2022-11-14T06:54:03.167Z,101524.75
2022-11-14T06:56:05.540Z,101524.81
2022-11-14T06:58:08.443Z,101515.97
2022-11-14T07:00:10.810Z,101522.94
2022-11-14T07:02:14.572Z,101529.00
2022-11-14T07:04:19.554Z,101520.84
2022-11-14T07:06:23.235Z,101532.25
2022-11-14T07:08:24.798Z,101522.50
2022-11-14T07:10:26.153Z,101530.31
2022-11-14T07:12:27.756Z,101534.69
2022-11-14T07:14:30.447Z,101541.69
2022-11-14T07:16:33.837Z,101541.84
2022-11-14T07:18:35.709Z,101528.81
2022-11-14T07:20:37.323Z,101531.41
2022-11-14T07:22:38.712Z,101524.31
2022-11-14T07:24:40.218Z,101512.06
2022-11-14T07:26:41.769Z,101531.06
2022-11-14T07:28:47.012Z,101532.88
2022-11-14T07:30:53.718Z,101515.09
2022-11-14T07:32:55.595Z,101513.94
2022-11-14T07:35:01.910Z,101523.28
2022-11-14T07:37:04.082Z,101520.59
2022-11-14T07:39:05.420Z,101514.41
2022-11-14T07:41:08.975Z,101513.53
2022-11-14T07:43:10.553Z,101518.88
2022-11-14T07:45:12.317Z,101516.22
2022-11-14T07:47:15.260Z,101514.50
2022-11-14T07:49:16.832Z,101516.16
2022-11-14T07:51:19.329Z,101500.50
2022-11-14T07:53:20.956Z,101517.06
2022-11-14T07:55:22.325Z,101522.41
2022-11-14T07:57:23.969Z,101511.84
2022-11-14T07:59:25.515Z,101507.34
2022-11-14T08:01:26.918Z,101509.72
2022-11-14T08:03:30.046Z,101491.44
2022-11-14T08:05:31.700Z,101515.09
2022-11-14T08:07:33.271Z,101518.63
2022-11-14T08:09:34.890Z,101505.25
2022-11-14T08:11:36.249Z,101508.53
2022-11-14T08:13:37.920Z,101506.81
2022-11-14T08:15:39.436Z,101504.72
2022-11-14T08:17:41.046Z,101513.66
2022-11-14T08:19:43.760Z,101511.78
2022-11-14T08:21:45.325Z,101510.09
2022-11-14T08:23:46.763Z,101506.44
2022-11-14T08:25:48.340Z,101501.41
2022-11-14T08:27:49.658Z,101501.31
2022-11-14T08:29:51.741Z,101506.41
2022-11-14T08:31:57.128Z,101496.66
2022-11-14T08:34:01.512Z,101491.97
2022-11-14T08:36:05.985Z,101493.53
2022-11-14T08:38:07.550Z,101491.88
2022-11-14T08:40:09.434Z,101491.72
2022-11-14T08:42:10.970Z,101488.16
2022-11-14T08:44:12.372Z,101495.97
2022-11-14T08:46:13.937Z,101494.00
2022-11-14T08:48:15.304Z,101497.00
2022-11-14T08:50:16.951Z,101492.72
2022-11-14T08:52:19.859Z,101494.41
2022-11-14T08:54:21.422Z,101497.53
2022-11-14T08:56:22.786Z,101489.84
2022-11-14T08:58:24.347Z,101494.19
2022-11-14T09:00:25.821Z,101486.72
2022-11-14T09:02:27.368Z,101491.72
2022-11-14T09:04:28.955Z,101477.47
2022-11-14T09:06:30.918Z,101488.16
2022-11-14T09:08:33.975Z,101489.16
2022-11-14T09:10:37.188Z,101483.94
2022-11-14T09:12:39.440Z,101477.38
2022-11-14T09:14:41.021Z,101480.94
2022-11-14T09:16:44.211Z,101472.16
2022-11-14T09:18:45.962Z,101474.84
2022-11-14T09:20:47.529Z,101475.59
2022-11-14T09:22:48.888Z,101467.97
2022-11-14T09:24:51.952Z,101461.75
2022-11-14T09:26:56.666Z,101466.09
2022-11-14T09:28:58.790Z,101465.19
2022-11-14T09:31:00.689Z,101472.06
2022-11-14T09:33:07.053Z,101459.09
2022-11-14T09:35:12.865Z,101472.69
2022-11-14T09:37:14.253Z,101464.50
2022-11-14T09:39:15.867Z,101468.56
2022-11-14T09:41:24.818Z,101458.50
2022-11-14T09:43:59.285Z,101462.59
2022-11-14T09:46:02.340Z,101461.78
2022-11-14T09:48:06.993Z,101460.91
2022-11-14T09:50:13.885Z,101451.28
2022-11-14T09:52:26.383Z,101461.31
2022-11-14T09:54:37.792Z,101447.13
2022-11-14T09:56:40.823Z,101442.09
2022-11-14T09:58:42.423Z,101441.03
2022-11-14T10:00:46.190Z,101434.56
2022-11-14T10:03:01.381Z,101433.06
2022-11-14T10:05:30.872Z,101429.47
2022-11-14T10:07:40.770Z,101414.94
2022-11-14T10:09:59.175Z,101414.22
2022-11-14T10:12:10.623Z,101414.69
2022-11-14T10:14:41.194Z,101425.66
2022-11-14T10:16:54.413Z,101431.63
2022-11-14T10:19:10.927Z,101425.44
2022-11-14T10:21:29.421Z,101423.81
2022-11-14T10:23:43.797Z,101436.16
2022-11-14T10:25:54.346Z,101430.63
2022-11-14T10:28:12.768Z,101430.31
2022-11-14T10:30:18.069Z,101422.84
2022-11-14T10:32:32.904Z,101402.56
2022-11-14T10:34:40.235Z,101413.72
2022-11-14T10:36:53.428Z,101407.53
2022-11-14T10:39:03.073Z,101403.88
2022-11-14T10:41:06.525Z,101408.09
2022-11-14T10:43:20.846Z,101392.81
2022-11-14T10:45:26.810Z,101404.22
2022-11-14T10:47:35.921Z,101382.34
2022-11-14T10:49:38.861Z,101393.56
2022-11-14T10:51:43.438Z,101400.72
2022-11-14T10:53:54.898Z,101396.50
2022-11-14T10:56:04.353Z,101399.84
2022-11-14T10:58:10.097Z,101392.28
2022-11-14T11:00:16.400Z,101387.66
2022-11-14T11:02:18.046Z,101374.25
2022-11-14T11:04:24.699Z,101384.81
2022-11-14T11:06:27.917Z,101369.50
2022-11-14T11:08:42.830Z,101376.19
2022-11-14T11:10:47.197Z,101372.16
2022-11-14T11:12:50.920Z,101375.81
2022-11-14T11:15:13.357Z,101374.69
2022-11-14T11:17:22.703Z,101358.75
2022-11-14T11:19:26.478Z,101358.13
2022-11-14T11:21:47.313Z,101356.97
2022-11-14T11:23:50.823Z,101339.34
2022-11-14T11:26:00.119Z,101349.97
2022-11-14T11:28:13.208Z,101349.47
2022-11-14T11:30:20.580Z,101346.56
2022-11-14T11:32:25.867Z,101331.31
2022-11-14T11:34:32.552Z,101328.09
2022-11-14T11:36:40.568Z,101336.63
2022-11-14T11:38:42.361Z,101329.31
2022-11-14T11:40:45.934Z,101327.28
2022-11-14T11:45:19.897Z,101313.25
2022-11-14T11:47:21.582Z,101323.22
2022-11-14T11:49:37.148Z,101318.91
2022-11-14T11:51:43.575Z,101314.25
2022-11-14T11:53:50.802Z,101317.91
2022-11-14T11:55:59.358Z,101316.91
2022-11-14T11:58:05.129Z,101316.84
2022-11-14T12:00:14.990Z,101311.72
2022-11-14T12:02:22.757Z,101315.19
2022-11-14T12:04:25.956Z,101318.63
2022-11-14T12:06:32.629Z,101305.63
2022-11-14T12:08:45.475Z,101309.63
2022-11-14T12:10:47.814Z,101311.56
2022-11-14T12:13:15.876Z,101309.09
2022-11-14T12:15:24.204Z,101305.88
2022-11-14T12:18:05.101Z,101307.09
2022-11-14T12:20:30.715Z,101313.41
2022-11-14T12:23:06.285Z,101317.09
2022-11-14T12:25:34.828Z,101310.72
2022-11-14T12:27:49.359Z,101304.44
2022-11-14T12:30:09.029Z,101310.63
2022-11-14T12:32:15.573Z,101301.88
2022-11-14T12:34:24.485Z,101305.19
2022-11-14T12:36:31.370Z,101298.44
2022-11-14T12:38:40.849Z,101300.38
2022-11-14T12:40:50.413Z,101302.75
2022-11-14T12:42:52.612Z,101308.16
2022-11-14T12:44:54.411Z,101304.63
2022-11-14T12:47:20.106Z,101294.69
2022-11-14T12:49:37.387Z,101293.97
2022-11-14T12:51:51.549Z,101280.94
2022-11-14T12:53:53.171Z,101288.94
2022-11-14T12:56:22.682Z,101288.66
2022-11-14T12:58:42.958Z,101281.88
2022-11-14T13:01:05.197Z,101285.63
2022-11-14T13:03:30.490Z,101290.00
2022-11-14T13:05:52.415Z,101292.31
2022-11-14T13:08:09.731Z,101288.00
2022-11-14T13:10:15.992Z,101271.50
2022-11-14T13:12:28.085Z,101283.47
2022-11-14T13:14:30.542Z,101271.88
2022-11-14T13:16:32.853Z,101278.66
2022-11-14T13:18:34.996Z,101270.50
2022-11-14T13:20:36.792Z,101270.50
2022-11-14T13:22:40.673Z,101266.63
2022-11-14T13:25:19.407Z,101276.69
2022-11-14T13:27:45.151Z,101272.09
2022-11-14T13:29:47.933Z,101270.50
2022-11-14T13:31:51.461Z,101252.22
2022-11-14T13:33:55.272Z,101262.88
2022-11-14T13:36:02.168Z,101267.06
2022-11-14T13:38:27.821Z,101253.78
2022-11-14T13:40:36.804Z,101253.22
2022-11-14T13:42:49.635Z,101248.75
2022-11-14T13:45:17.118Z,101257.53
2022-11-14T13:47:41.389Z,101248.91
2022-11-14T13:49:56.388Z,101229.59
2022-11-14T13:51:58.750Z,101239.81
2022-11-14T13:54:00.870Z,101238.38
2022-11-14T13:56:20.206Z,101240.69
2022-11-14T13:58:33.099Z,101245.00
2022-11-14T14:00:55.495Z,101239.38
2022-11-14T14:03:22.498Z,101228.44
2022-11-14T14:05:32.199Z,101237.38
2022-11-14T14:07:51.129Z,101242.97
2022-11-14T14:10:01.474Z,101244.28
2022-11-14T14:12:26.857Z,101242.56
2022-11-14T14:14:45.288Z,101235.28
2022-11-14T14:16:53.585Z,101232.03
2022-11-14T14:19:05.261Z,101225.56
2022-11-14T14:21:18.313Z,101226.00
2022-11-14T14:23:32.759Z,101223.53
2022-11-14T14:25:45.526Z,101211.75
2022-11-14T14:28:00.382Z,101212.88
2022-11-14T14:30:11.854Z,101211.94
2022-11-14T14:32:15.648Z,101211.13
2022-11-14T14:34:26.774Z,101205.31
2022-11-14T14:36:30.407Z,101201.56
2022-11-14T14:38:32.868Z,101204.53
2022-11-14T14:40:37.149Z,101201.66
2022-11-14T14:42:45.677Z,101210.88
2022-11-14T14:44:49.073Z,101205.50
2022-11-14T14:46:51.342Z,101203.69
2022-11-14T14:48:53.002Z,101201.09
2022-11-14T14:50:56.388Z,101195.19
2022-11-14T14:52:59.475Z,101194.25
2022-11-14T14:55:01.023Z,101193.47
2022-11-14T14:57:02.790Z,101198.66
2022-11-14T14:59:16.355Z,101190.00
2022-11-14T15:01:21.222Z,101188.94
2022-11-14T15:03:24.427Z,101195.13
2022-11-14T15:05:28.225Z,101192.03
2022-11-14T15:07:30.496Z,101187.63
2022-11-14T15:09:32.155Z,101184.69
2022-11-14T15:11:34.043Z,101187.13
2022-11-14T15:13:36.568Z,101187.00
2022-11-14T15:15:39.119Z,101187.72
2022-11-14T15:17:43.653Z,101191.59
2022-11-14T15:19:46.844Z,101189.38
2022-11-14T15:22:02.263Z,101193.63
2022-11-14T15:24:14.417Z,101191.88
2022-11-14T15:26:17.764Z,101195.28
2022-11-14T15:28:21.533Z,101198.06
2022-11-14T15:30:25.955Z,101194.34
2022-11-14T15:32:27.602Z,101197.22
2022-11-14T15:34:32.578Z,101195.28
2022-11-14T15:36:34.157Z,101190.50
2022-11-14T15:38:43.874Z,101187.03
2022-11-14T15:41:10.860Z,101180.75
2022-11-14T15:43:37.829Z,101183.66
2022-11-14T15:45:40.698Z,101166.59
2022-11-14T15:47:42.403Z,101177.09
2022-11-14T15:49:56.747Z,101174.44
2022-11-14T15:52:01.933Z,101167.59
2022-11-14T15:54:03.634Z,101172.50
2022-11-14T15:56:05.324Z,101157.03
2022-11-14T15:58:27.159Z,101161.94
2022-11-14T16:00:29.659Z,101166.53
2022-11-14T16:02:34.038Z,101172.06
2022-11-14T16:04:38.395Z,101168.72
2022-11-14T16:06:43.896Z,101161.69
2022-11-14T16:08:45.468Z,101163.53
2022-11-14T16:10:46.962Z,101166.31
2022-11-14T16:12:52.441Z,101166.50
2022-11-14T16:14:54.434Z,101173.63
2022-11-14T16:16:55.800Z,101166.84
2022-11-14T16:18:57.408Z,101160.72
2022-11-14T16:20:59.196Z,101164.31
2022-11-14T16:23:02.085Z,101163.78
2022-11-14T16:25:04.120Z,101171.22
2022-11-14T16:27:05.781Z,101158.19
2022-11-14T16:29:07.397Z,101175.41
2022-11-14T16:31:11.808Z,101178.00
2022-11-14T16:33:13.783Z,101187.97
2022-11-14T16:35:17.065Z,101180.38
2022-11-14T16:37:18.706Z,101188.53
2022-11-14T16:39:21.743Z,101182.59
2022-11-14T16:41:23.623Z,101173.69
2022-11-14T16:43:25.211Z,101177.06
2022-11-14T16:45:27.151Z,101171.75
2022-11-14T16:47:29.023Z,101160.38
2022-11-14T16:49:41.209Z,101153.53
2022-11-14T16:51:48.186Z,101168.09
2022-11-14T16:53:54.744Z,101166.41
2022-11-14T16:55:58.086Z,101164.06
2022-11-14T16:57:59.717Z,101155.84
2022-11-14T17:00:03.650Z,101158.88
2022-11-14T17:02:05.602Z,101160.53
2022-11-14T17:04:07.837Z,101153.56
2022-11-14T17:06:09.581Z,101159.63
2022-11-14T17:08:11.291Z,101158.38
2022-11-14T17:10:13.421Z,101161.31
2022-11-14T17:12:16.778Z,101158.59
2022-11-14T17:14:18.462Z,101169.28
2022-11-14T17:16:20.007Z,101164.28
2022-11-14T17:18:21.843Z,101171.69
2022-11-14T17:20:23.652Z,101171.47
2022-11-14T17:22:25.919Z,101167.38
2022-11-14T17:24:31.319Z,101173.91
2022-11-14T17:26:33.239Z,101167.00
2022-11-14T17:28:36.062Z,101166.38
2022-11-14T17:30:40.981Z,101173.44
2022-11-14T17:32:43.066Z,101167.13
2022-11-14T17:34:44.618Z,101157.25
2022-11-14T17:36:46.270Z,101164.78
2022-11-14T17:38:54.310Z,101156.38
2022-11-14T17:40:56.781Z,101161.81
2022-11-14T17:42:58.314Z,101150.88
2022-11-14T17:45:01.373Z,101154.44
2022-11-14T17:47:04.854Z,101153.63
2022-11-14T17:49:06.730Z,101150.19
2022-11-14T17:51:11.769Z,101152.28
2022-11-14T17:53:13.411Z,101152.47
2022-11-14T17:55:14.976Z,101150.72
2022-11-14T17:57:16.519Z,101145.19
2022-11-14T17:59:18.863Z,101153.44
2022-11-14T18:01:23.714Z,101149.56
2022-11-14T18:03:25.708Z,101146.84
2022-11-14T18:05:27.319Z,101154.25
2022-11-14T18:07:29.730Z,101145.97
2022-11-14T18:09:31.333Z,101152.19
2022-11-14T18:11:32.708Z,101144.13
2022-11-14T18:13:34.766Z,101142.06
2022-11-14T18:15:38.222Z,101145.19
2022-11-14T18:17:41.301Z,101144.56
2022-11-14T18:19:42.859Z,101143.47
2022-11-14T18:21:46.802Z,101142.38
2022-11-14T18:23:51.673Z,101144.13
2022-11-14T18:25:53.254Z,101138.81
2022-11-14T18:27:54.635Z,101130.69
2022-11-14T18:30:07.969Z,101130.84
2022-11-14T18:32:15.180Z,101125.94
2022-11-14T18:34:18.019Z,101120.91
2022-11-14T18:36:20.185Z,101110.44
2022-11-14T18:38:22.216Z,101115.75
2022-11-14T18:40:23.911Z,101111.47
2022-11-14T18:42:25.415Z,101110.72
2022-11-14T18:44:26.873Z,101106.69
2022-11-14T18:46:30.881Z,101107.69
2022-11-14T18:48:36.977Z,101111.69
2022-11-14T18:50:39.877Z,101109.09
2022-11-14T18:52:41.445Z,101103.06
2022-11-14T18:54:43.013Z,101101.22
2022-11-14T18:56:44.425Z,101112.56
2022-11-14T18:58:46.464Z,101099.81
2022-11-14T19:00:48.081Z,101102.41
2022-11-14T19:02:49.921Z,101104.31
2022-11-14T19:04:51.632Z,101104.91
2022-11-14T19:06:54.727Z,101097.97
2022-11-14T19:08:56.735Z,101098.91
2022-11-14T19:11:01.049Z,101092.09
2022-11-14T19:13:02.587Z,101099.59
2022-11-14T19:15:04.421Z,101103.28
2022-11-14T19:17:06.071Z,101089.44
2022-11-14T19:19:08.419Z,101094.50
2022-11-14T19:21:10.370Z,101098.09
2022-11-14T19:23:13.291Z,101097.75
2022-11-14T19:25:15.150Z,101089.31
2022-11-14T19:27:16.703Z,101098.19
2022-11-14T19:29:18.074Z,101098.81
2022-11-14T19:31:20.722Z,101087.94
2022-11-14T19:33:22.293Z,101093.00
2022-11-14T19:35:23.745Z,101086.78
2022-11-14T19:37:25.326Z,101092.78
2022-11-14T19:39:28.475Z,101078.84
2022-11-14T19:41:30.992Z,101070.31
2022-11-14T19:43:32.846Z,101042.66
2022-11-14T19:45:34.729Z,101062.38
2022-11-14T19:47:36.334Z,101064.38
2022-11-14T19:49:37.936Z,101055.97
2022-11-14T19:51:39.342Z,101071.97
2022-11-14T19:53:41.603Z,101069.53
2022-11-14T19:55:44.485Z,101065.88
2022-11-14T19:57:46.052Z,101067.47
2022-11-14T19:59:47.527Z,101073.88
2022-11-14T20:01:49.982Z,101064.44
2022-11-14T20:03:52.271Z,101068.06
2022-11-14T20:05:53.924Z,101056.66
2022-11-14T20:07:55.494Z,101062.94
2022-11-14T20:09:56.878Z,101052.91
2022-11-14T20:11:59.908Z,101050.72
2022-11-14T20:14:02.050Z,101051.00
2022-11-14T20:16:08.579Z,101049.09
2022-11-14T20:18:10.278Z,101055.53
2022-11-14T20:20:11.889Z,101054.72
2022-11-14T20:22:13.536Z,101066.31
2022-11-14T20:24:15.158Z,101049.50
2022-11-14T20:26:18.437Z,101068.56
2022-11-14T20:28:21.452Z,101069.28
2022-11-14T20:30:23.274Z,101069.09
2022-11-14T20:32:24.867Z,101067.25
2022-11-14T20:34:26.531Z,101058.91
2022-11-14T20:36:38.946Z,101077.00
2022-11-14T20:38:50.654Z,101060.97
2022-11-14T20:40:56.349Z,101071.91
2022-11-14T20:42:58.019Z,101070.81
2022-11-14T20:45:00.990Z,101067.72
2022-11-14T20:47:05.099Z,101054.91
2022-11-14T20:49:10.327Z,101069.19
2022-11-14T20:51:14.004Z,101062.16
2022-11-14T20:53:15.628Z,101061.94
2022-11-14T20:55:17.415Z,101063.69
2022-11-14T20:57:18.998Z,101054.88
2022-11-14T20:59:20.645Z,101058.88
2022-11-14T21:01:23.666Z,101060.69
2022-11-14T21:03:25.437Z,101049.63
2022-11-14T21:05:27.080Z,101056.47
2022-11-14T21:07:28.756Z,101054.22
2022-11-14T21:09:30.364Z,101048.22
2022-11-14T21:11:31.764Z,101048.13
2022-11-14T21:13:35.418Z,101042.81
2022-11-14T21:15:37.016Z,101040.91
2022-11-14T21:17:39.968Z,101040.31
2022-11-14T21:19:41.651Z,101039.09
2022-11-14T21:21:43.270Z,101041.72
2022-11-14T21:23:45.946Z,101038.38
2022-11-14T21:25:47.913Z,101041.63
2022-11-14T21:27:49.455Z,101039.09
2022-11-14T21:29:50.785Z,101041.53
2022-11-14T21:31:52.384Z,101042.28
2022-11-14T21:33:56.382Z,101037.09
2022-11-14T21:36:03.893Z,101032.53
2022-11-14T21:38:18.227Z,101028.06
2022-11-14T21:40:19.744Z,101024.38
2022-11-14T21:42:21.118Z,101034.06
2022-11-14T21:44:22.657Z,101023.69
2022-11-14T21:46:24.498Z,101023.91
2022-11-14T21:48:29.531Z,101014.59
2022-11-14T21:50:33.832Z,101018.28
2022-11-14T21:52:36.532Z,101026.47
2022-11-14T21:54:38.179Z,101019.75
2022-11-14T21:56:39.730Z,101019.03
2022-11-14T21:58:41.512Z,101018.38
2022-11-14T22:00:43.099Z,101011.25
2022-11-14T22:02:44.454Z,101023.91
2022-11-14T22:04:46.008Z,101017.34
2022-11-14T22:06:48.925Z,101021.94
2022-11-14T22:08:53.419Z,101014.94
2022-11-14T22:11:01.213Z,101023.03
2022-11-14T22:13:02.789Z,101010.50
2022-11-14T22:15:04.713Z,101013.09
2022-11-14T22:17:06.259Z,101012.34
2022-11-14T22:19:07.581Z,101002.81
2022-11-14T22:21:09.262Z,100997.75
2022-11-14T22:23:12.192Z,101002.56
2022-11-14T22:25:13.960Z,101000.72
2022-11-14T22:27:15.668Z,100989.94
2022-11-14T22:29:17.301Z,101012.28
2022-11-14T22:31:20.544Z,100993.91
2022-11-14T22:33:22.093Z,101000.22
2022-11-14T22:35:23.414Z,100995.31
2022-11-14T22:37:24.923Z,101003.19
2022-11-14T22:39:27.700Z,100997.94
2022-11-14T22:41:33.105Z,101003.19
2022-11-14T22:43:35.529Z,101004.31
2022-11-14T22:45:37.144Z,101003.91
2022-11-14T22:47:38.641Z,101006.38
2022-11-14T22:49:39.979Z,101005.03
2022-11-14T22:51:41.560Z,101007.13
2022-11-14T22:53:45.101Z,101006.59
2022-11-14T22:55:48.373Z,100992.59
2022-11-14T22:57:49.964Z,100998.50
2022-11-14T22:59:51.330Z,101000.31
2022-11-14T23:01:54.583Z,100993.72
2022-11-14T23:03:58.115Z,100998.88
2022-11-14T23:05:59.764Z,100992.66
2022-11-14T23:08:01.334Z,100999.72
2022-11-14T23:10:03.567Z,100985.69
2022-11-14T23:12:06.885Z,100982.88
2022-11-14T23:14:12.143Z,100986.34
2022-11-14T23:16:15.464Z,100992.16
2022-11-14T23:18:17.025Z,100981.69
2022-11-14T23:20:18.580Z,100985.75
2022-11-14T23:22:20.130Z,100980.81
2022-11-14T23:24:21.482Z,100983.22
2022-11-14T23:26:24.205Z,100993.03
2022-11-14T23:28:29.625Z,100989.19
2022-11-14T23:30:31.189Z,100978.13
2022-11-14T23:32:32.598Z,100982.81
2022-11-14T23:34:34.187Z,100990.84
2022-11-14T23:36:47.595Z,100979.75
2022-11-14T23:38:51.549Z,100979.84
2022-11-14T23:40:53.532Z,100977.63
2022-11-14T23:42:55.077Z,100974.13